Time;durP1;ratioP1;P1;durP2;ratioP2;P2;SDS_P1;SDS_P2;PMS_P1;PMS_P2;Temp;Humidity;BMP_temperature;BMP_pressure;BME280_temperature;BME280_humidity;BME280_pressure;Samples;Min_cycle;Max_cycle;Signal;HPM_P1;HPM_P2
2022/03/29 00:00:27;;;;;;;13.15;8.25;;;8.20;92.20;;;;;;5038680;28;20037;-70
2022/03/29 00:02:52;;;;;;;13.88;8.55;;;8.20;92.50;;;;;;5041075;28;20500;-76
2022/03/29 00:05:18;;;;;;;14.27;8.50;;;8.10;92.90;;;;;;5039959;28;20458;-77
2022/03/29 00:07:44;;;;;;;17.17;8.68;;;8.10;93.10;;;;;;5041092;28;20032;-76
2022/03/29 00:10:10;;;;;;;13.45;8.40;;;8.10;93.40;;;;;;5039001;28;20021;-78
2022/03/29 00:12:36;;;;;;;13.57;8.20;;;8.00;93.70;;;;;;5040715;28;20025;-76
2022/03/29 00:15:05;;;;;;;13.57;8.65;;;8.00;94.10;;;;;;5042040;28;20104;-77
2022/03/29 00:17:31;;;;;;;17.27;8.63;;;8.00;94.40;;;;;;5038842;28;20025;-72
2022/03/29 00:19:57;;;;;;;14.85;9.05;;;7.90;94.70;;;;;;5039934;28;20033;-76
2022/03/29 00:22:23;;;;;;;16.73;9.13;;;7.90;95.10;;;;;;5040846;28;20057;-75
2022/03/29 00:24:49;;;;;;;13.93;8.80;;;7.80;95.60;;;;;;5040973;28;20036;-77
2022/03/29 00:27:15;;;;;;;15.82;9.30;;;7.80;96.10;;;;;;5043526;28;20017;-76
2022/03/29 00:29:41;;;;;;;14.77;8.48;;;7.80;96.60;;;;;;5038328;28;20036;-77
2022/03/29 00:32:07;;;;;;;15.80;9.45;;;7.80;96.90;;;;;;5039799;28;20025;-77
2022/03/29 00:34:34;;;;;;;15.40;9.25;;;7.80;97.10;;;;;;5039691;28;20032;-76
2022/03/29 00:37:00;;;;;;;17.67;8.95;;;7.80;97.20;;;;;;5038415;28;20517;-77
2022/03/29 00:39:26;;;;;;;14.27;8.52;;;7.80;97.30;;;;;;5036368;28;20029;-77
2022/03/29 00:41:52;;;;;;;14.63;9.20;;;7.80;97.40;;;;;;5030699;28;20053;-77
2022/03/29 00:44:17;;;;;;;14.63;8.95;;;7.80;97.80;;;;;;5033706;28;20048;-77
2022/03/29 00:46:43;;;;;;;16.38;9.00;;;7.70;97.90;;;;;;5051871;28;20033;-77
2022/03/29 00:49:09;;;;;;;13.48;8.18;;;7.70;97.90;;;;;;5050402;28;20044;-77
2022/03/29 00:51:35;;;;;;;14.85;9.05;;;7.70;98.00;;;;;;5050639;28;20463;-77
2022/03/29 00:54:01;;;;;;;15.95;8.02;;;7.60;98.10;;;;;;5051430;28;20044;-77
2022/03/29 00:56:27;;;;;;;13.88;7.95;;;7.60;98.20;;;;;;5051132;28;20025;-71
2022/03/29 00:58:53;;;;;;;14.60;8.75;;;7.60;98.30;;;;;;5046635;28;20025;-77
2022/03/29 01:01:18;;;;;;;18.65;9.18;;;7.60;98.30;;;;;;5032107;28;20549;-77
2022/03/29 01:03:45;;;;;;;16.48;9.30;;;7.50;98.30;;;;;;5038627;28;20033;-78
2022/03/29 01:06:11;;;;;;;12.13;7.88;;;7.60;98.00;;;;;;5051033;28;20052;-77
2022/03/29 01:08:36;;;;;;;15.98;9.07;;;7.60;97.70;;;;;;5050502;28;20478;-77
2022/03/29 01:11:05;;;;;;;16.92;9.32;;;7.60;97.50;;;;;;5032155;28;20030;-77
2022/03/29 01:13:32;;;;;;;16.27;9.68;;;7.60;97.40;;;;;;5029253;28;20121;-71
2022/03/29 01:17:38;;;;;;;16.77;9.50;;;7.60;96.90;;;;;;5031002;28;20455;-77
2022/03/29 01:18:45;;;;;;;16.10;8.98;;;7.70;96.70;;;;;;5029428;28;20033;-77
2022/03/29 01:21:15;;;;;;;22.83;9.57;;;7.70;96.40;;;;;;5045583;28;20430;-77
2022/03/29 01:23:41;;;;;;;19.88;9.20;;;7.70;96.20;;;;;;5040704;28;20047;-77
2022/03/29 01:26:07;;;;;;;22.08;10.00;;;7.70;96.20;;;;;;5031400;28;20100;-77
2022/03/29 01:28:32;;;;;;;17.02;9.48;;;7.70;96.10;;;;;;5038748;28;20499;-76
2022/03/29 01:30:58;;;;;;;18.38;9.82;;;7.70;96.00;;;;;;5036174;28;20121;-77
2022/03/29 01:33:24;;;;;;;16.40;9.38;;;7.70;95.80;;;;;;5031181;28;20033;-77
2022/03/29 01:35:52;;;;;;;18.48;9.55;;;7.70;95.80;;;;;;5028653;28;20033;-78
2022/03/29 01:38:18;;;;;;;18.92;10.35;;;7.70;96.00;;;;;;5029646;28;20079;-77
2022/03/29 01:40:43;;;;;;;14.65;8.75;;;7.80;95.80;;;;;;5030002;28;20065;-77
2022/03/29 01:43:09;;;;;;;17.73;9.43;;;7.80;95.60;;;;;;5030585;28;20068;-76
2022/03/29 01:45:35;;;;;;;15.77;9.73;;;7.80;95.50;;;;;;5042775;28;20033;-75
2022/03/29 01:48:00;;;;;;;15.18;8.85;;;7.80;95.50;;;;;;5050520;28;20025;-77
2022/03/29 01:50:27;;;;;;;17.25;9.93;;;7.70;95.60;;;;;;5041360;28;20072;-77
2022/03/29 01:52:52;;;;;;;15.63;8.20;;;7.70;95.80;;;;;;5030061;28;20870;-77
2022/03/29 01:55:20;;;;;;;15.48;9.25;;;7.70;96.00;;;;;;5030715;28;20029;-77
2022/03/29 01:57:46;;;;;;;16.13;8.95;;;7.60;96.10;;;;;;5041053;28;20036;-77
2022/03/29 02:00:31;;;;;;;15.60;8.38;;;7.60;96.20;;;;;;5045422;28;20036;-77
2022/03/29 02:02:58;;;;;;;14.43;8.85;;;7.50;96.20;;;;;;5030144;28;20477;-75
2022/03/29 02:05:24;;;;;;;17.23;9.38;;;7.50;96.60;;;;;;5030733;28;20191;-77
2022/03/29 02:07:50;;;;;;;15.70;8.90;;;7.40;97.30;;;;;;5029265;28;20033;-77
2022/03/29 02:10:21;;;;;;;15.32;9.35;;;7.40;98.00;;;;;;5034781;28;20489;-77
2022/03/29 02:12:48;;;;;;;13.32;8.60;;;7.40;98.50;;;;;;5046964;28;20095;-77
2022/03/29 02:15:14;;;;;;;14.10;8.48;;;7.40;98.80;;;;;;5030679;28;20064;-77
2022/03/29 02:17:41;;;;;;;14.98;8.57;;;7.40;99.10;;;;;;5031426;28;20060;-77
2022/03/29 02:20:08;;;;;;;13.57;7.85;;;7.30;99.20;;;;;;5048901;28;20033;-77
2022/03/29 02:22:34;;;;;;;16.50;8.82;;;7.20;99.40;;;;;;5028419;28;20482;-71
2022/03/29 02:25:00;;;;;;;14.52;8.40;;;7.20;99.60;;;;;;5030651;28;20060;-77
2022/03/29 02:27:25;;;;;;;13.60;8.52;;;7.20;99.70;;;;;;5029254;28;20025;-77
2022/03/29 02:29:51;;;;;;;13.25;8.27;;;7.20;99.80;;;;;;5033242;28;20025;-77
2022/03/29 02:32:17;;;;;;;14.20;8.43;;;7.10;99.90;;;;;;5054064;28;20411;-77
2022/03/29 02:34:45;;;;;;;14.48;8.80;;;7.10;99.90;;;;;;5055540;28;20494;-78
2022/03/29 02:37:11;;;;;;;15.18;8.77;;;7.10;99.90;;;;;;5054533;28;20100;-77
2022/03/29 02:39:37;;;;;;;14.60;8.40;;;7.10;99.90;;;;;;5053198;28;20024;-77
2022/03/29 02:42:04;;;;;;;16.13;9.18;;;7.10;99.90;;;;;;5036708;28;20038;-77
2022/03/29 02:44:29;;;;;;;13.07;9.02;;;7.10;99.90;;;;;;5037861;28;20055;-76
2022/03/29 02:46:56;;;;;;;16.48;9.00;;;;;;;;;;5053155;28;20458;-75
2022/03/29 02:49:23;;;;;;;14.95;8.85;;;;;;;;;;5046481;28;20340;-75
2022/03/29 02:51:49;;;;;;;13.75;9.00;;;;;;;;;;5047174;28;20031;-75
2022/03/29 02:54:15;;;;;;;15.98;9.20;;;;;;;;;;5035462;28;20436;-76
2022/03/29 02:56:41;;;;;;;14.40;8.68;;;;;;;;;;5032663;28;20493;-76
2022/03/29 02:59:08;;;;;;;19.05;10.27;;;;;;;;;;5033444;28;20044;-77
2022/03/29 03:01:34;;;;;;;13.10;8.38;;;;;;;;;;5044835;28;20041;-71
2022/03/29 03:04:00;;;;;;;13.88;8.70;;;;;;;;;;5051010;28;20025;-76
2022/03/29 03:06:26;;;;;;;14.15;8.55;;;;;;;;;;5041087;28;20037;-76
2022/03/29 03:08:52;;;;;;;14.50;8.50;;;;;;;;;;5032505;28;20029;-75
2022/03/29 03:11:18;;;;;;;12.15;8.32;;;;;;;;;;5042724;28;20021;-78
2022/03/29 03:13:44;;;;;;;15.20;9.30;;;;;;;;;;5052500;28;20025;-76
2022/03/29 03:16:10;;;;;;;19.48;9.35;;;;;;;;;;5052668;28;20025;-78
2022/03/29 03:18:36;;;;;;;16.80;9.05;;;;;;;;;;5035022;28;20029;-71
2022/03/29 03:21:03;;;;;;;16.38;9.38;;;;;;;;;;5054425;28;20081;-76
2022/03/29 03:23:29;;;;;;;15.07;9.07;;;;;;;;;;5068972;28;20028;-77
2022/03/29 03:25:55;;;;;;;15.80;9.68;;;;;;;;;;5070674;28;20021;-76
2022/03/29 03:28:21;;;;;;;17.60;10.27;;;;;;;;;;5072062;28;20028;-75
2022/03/29 03:30:48;;;;;;;21.35;9.57;;;;;;;;;;5061466;28;20039;-77
2022/03/29 03:33:14;;;;;;;19.38;9.27;;;;;;;;;;5053022;28;20116;-77
2022/03/29 03:35:40;;;;;;;15.68;9.60;;;;;;;;;;5052111;28;20382;-77
2022/03/29 03:38:07;;;;;;;16.77;8.23;;;;;;;;;;5052444;28;20108;-74
2022/03/29 03:40:33;;;;;;;24.35;9.90;;;;;;;;;;5048303;28;20065;-72
2022/03/29 03:43:00;;;;;;;17.45;10.15;;;;;;;;;;5032352;28;20076;-76
2022/03/29 03:45:26;;;;;;;17.75;10.23;;;;;;;;;;5038147;28;20065;-77
2022/03/29 03:47:52;;;;;;;19.52;10.93;;;;;;;;;;5030247;28;20033;-77
2022/03/29 03:50:18;;;;;;;21.38;10.77;;;;;;;;;;5033761;28;20119;-77
2022/03/29 03:52:44;;;;;;;17.63;10.48;;;;;;;;;;5051523;28;20028;-76
2022/03/29 03:55:10;;;;;;;18.60;10.07;;;;;;;;;;5051309;28;20032;-77
2022/03/29 03:57:36;;;;;;;24.65;11.82;;;;;;;;;;5032151;28;20021;-71
2022/03/29 04:00:03;;;;;;;19.08;10.60;;;;;;;;;;5032380;28;20105;-77
2022/03/29 04:02:29;;;;;;;19.67;10.60;;;;;;;;;;5051616;28;20180;-77
2022/03/29 04:04:55;;;;;;;21.13;11.07;;;;;;;;;;5051412;28;20675;-77
2022/03/29 04:07:21;;;;;;;19.98;10.07;;;;;;;;;;5050938;28;20120;-77
2022/03/29 04:09:47;;;;;;;19.85;11.13;;;;;;;;;;5050924;28;20103;-77
2022/03/29 04:12:13;;;;;;;20.90;10.85;;;;;;;;;;5035066;28;20374;-77
2022/03/29 04:14:39;;;;;;;23.02;10.95;;;;;;;;;;5031310;28;20033;-75
2022/03/29 04:17:06;;;;;;;20.60;11.27;;;;;;;;;;5032059;28;20021;-77
2022/03/29 04:19:32;;;;;;;21.60;9.10;;;;;;;;;;5031635;28;20021;-76
2022/03/29 04:21:58;;;;;;;17.15;9.63;;;;;;;;;;5048344;28;20025;-76
2022/03/29 04:24:24;;;;;;;17.23;10.38;;;;;;;;;;5032849;28;20052;-77
2022/03/29 04:26:51;;;;;;;17.40;9.98;;;;;;;;;;5031616;28;20022;-77
2022/03/29 04:29:17;;;;;;;16.35;9.85;;;;;;;;;;5033425;28;20394;-77
2022/03/29 04:31:43;;;;;;;22.00;10.25;;;;;;;;;;5031135;28;20025;-78
2022/03/29 04:34:09;;;;;;;20.13;9.52;;;;;;;;;;5031856;28;20033;-78
2022/03/29 04:36:36;;;;;;;16.67;10.13;;;6.70;99.90;;;;;;5031535;28;20482;-71
2022/03/29 04:39:01;;;;;;;15.43;10.60;;;6.70;99.90;;;;;;5047490;28;20036;-79
2022/03/29 04:41:27;;;;;;;16.52;9.98;;;6.50;99.90;;;;;;5036199;28;20021;-80
2022/03/29 04:43:53;;;;;;;17.17;10.27;;;6.40;99.90;;;;;;5045948;28;20045;-75
2022/03/29 04:46:18;;;;;;;17.17;9.13;;;6.40;99.90;;;;;;5055174;28;20029;-77
2022/03/29 04:48:44;;;;;;;21.33;11.15;;;6.30;99.90;;;;;;5050553;28;20415;-77
2022/03/29 04:51:10;;;;;;;20.35;10.43;;;6.20;99.90;;;;;;5050779;28;20051;-76
2022/03/29 04:53:36;;;;;;;19.23;9.57;;;6.30;99.90;;;;;;5050138;28;20478;-71
2022/03/29 04:56:02;;;;;;;16.20;8.98;;;6.20;99.90;;;;;;5050928;28;20021;-76
2022/03/29 04:58:28;;;;;;;15.35;9.45;;;6.20;99.90;;;;;;5051107;28;20044;-73
2022/03/29 05:00:53;;;;;;;18.33;9.88;;;6.20;99.90;;;;;;5033240;28;20398;-77
2022/03/29 05:03:19;;;;;;;17.27;9.27;;;6.20;99.90;;;;;;5031614;28;20057;-75
2022/03/29 05:05:45;;;;;;;20.38;10.02;;;6.20;99.90;;;;;;5036547;28;20033;-77
2022/03/29 05:08:11;;;;;;;19.90;9.75;;;6.10;99.90;;;;;;5031375;28;20064;-78
2022/03/29 05:10:36;;;;;;;16.50;9.63;;;6.10;99.90;;;;;;5045125;28;20025;-72
2022/03/29 05:13:02;;;;;;;15.68;9.63;;;6.00;99.90;;;;;;5050831;28;20029;-77
2022/03/29 05:15:28;;;;;;;17.67;9.75;;;6.00;99.90;;;;;;5051249;28;20453;-78
2022/03/29 05:17:54;;;;;;;21.08;11.20;;;6.00;99.90;;;;;;5050772;28;20101;-77
2022/03/29 05:20:19;;;;;;;18.17;10.55;;;5.90;99.90;;;;;;5049801;28;20126;-76
2022/03/29 05:22:52;;;;;;;17.42;9.85;;;5.90;99.90;;;;;;5035226;28;20030;-72
2022/03/29 05:25:21;;;;;;;19.20;10.02;;;5.90;99.90;;;;;;5032093;28;20128;-78
2022/03/29 05:27:47;;;;;;;18.20;9.70;;;5.90;99.90;;;;;;5031683;28;20026;-77
2022/03/29 05:30:14;;;;;;;16.45;9.63;;;5.90;99.90;;;;;;5033282;28;20038;-79
2022/03/29 05:32:41;;;;;;;15.77;9.85;;;5.90;99.90;;;;;;5037880;28;20104;-71
2022/03/29 05:35:09;;;;;;;20.75;10.85;;;5.80;99.90;;;;;;5040606;28;20406;-76
2022/03/29 05:37:36;;;;;;;23.92;10.35;;;5.90;99.90;;;;;;5031758;28;20026;-76
2022/03/29 05:40:04;;;;;;;24.90;12.18;;;6.00;99.90;;;;;;5043565;28;20029;-71
2022/03/29 05:42:30;;;;;;;23.02;11.13;;;6.10;99.90;;;;;;5055959;28;20025;-76
2022/03/29 05:44:56;;;;;;;19.02;10.75;;;6.20;99.90;;;;;;5043106;28;20060;-77
2022/03/29 05:50:07;;;;;;;18.52;10.30;;;6.30;99.90;;;;;;5047115;28;20056;-75
2022/03/29 05:52:33;;;;;;;20.27;10.35;;;6.50;99.90;;;;;;5070865;28;20033;-79
2022/03/29 05:54:59;;;;;;;21.27;11.20;;;6.50;99.90;;;;;;5068436;28;20615;-80
2022/03/29 05:57:25;;;;;;;17.52;10.00;;;6.60;99.90;;;;;;5070743;28;20032;-78
2022/03/29 05:59:51;;;;;;;16.83;10.60;;;6.70;99.90;;;;;;5064380;28;20021;-78
2022/03/29 06:02:17;;;;;;;18.85;9.75;;;6.70;99.90;;;;;;5062001;28;20029;-79
2022/03/29 06:04:42;;;;;;;16.88;10.23;;;6.80;99.90;;;;;;5053451;28;20041;-80
2022/03/29 06:07:08;;;;;;;17.42;10.63;;;6.80;99.90;;;;;;5060791;28;20056;-84
2022/03/29 06:09:35;;;;;;;20.20;10.82;;;6.90;99.90;;;;;;5056930;28;20053;-85
2022/03/29 06:12:02;;;;;;;17.83;11.10;;;7.00;99.90;;;;;;5062924;28;20100;-85
2022/03/29 06:14:28;;;;;;;19.88;11.57;;;7.10;99.90;;;;;;5067139;28;20091;-75
2022/03/29 06:16:55;;;;;;;23.67;11.57;;;7.20;99.90;;;;;;5071339;28;20037;-87
2022/03/29 06:19:21;;;;;;;18.13;10.13;;;7.30;99.90;;;;;;5046462;28;20044;-78
2022/03/29 06:21:47;;;;;;;24.30;10.63;;;7.40;99.90;;;;;;5045425;28;20029;-74
2022/03/29 06:24:13;;;;;;;20.23;11.73;;;7.50;99.90;;;;;;5042681;28;20082;-77
2022/03/29 06:26:39;;;;;;;20.83;11.13;;;7.70;99.90;;;;;;5043994;28;20029;-73
2022/03/29 06:29:10;;;;;;;19.80;11.50;;;7.80;99.90;;;;;;5044235;28;20025;-79
2022/03/29 06:31:35;;;;;;;18.52;10.68;;;8.00;99.90;;;;;;5052891;28;20128;-83
2022/03/29 06:34:02;;;;;;;23.65;11.68;;;8.20;99.60;;;;;;5054682;28;20036;-75
2022/03/29 06:36:27;;;;;;;18.35;11.30;;;8.30;99.20;;;;;;5048555;28;20040;-79
2022/03/29 06:38:54;;;;;;;18.23;10.50;;;8.40;98.70;;;;;;5039936;28;20029;-74
2022/03/29 06:41:19;;;;;;;23.65;11.35;;;8.60;97.90;;;;;;5043901;28;20029;-75
2022/03/29 06:43:47;;;;;;;27.33;12.60;;;8.80;97.30;;;;;;5035392;28;20401;-74
2022/03/29 06:46:13;;;;;;;23.88;12.73;;;8.90;96.70;;;;;;5047671;28;20104;-75
2022/03/29 06:48:41;;;;;;;27.58;13.90;;;9.10;96.40;;;;;;5048105;28;20033;-79
2022/03/29 06:51:09;;;;;;;23.77;12.73;;;9.20;95.90;;;;;;5026239;28;20037;-78
2022/03/29 06:53:35;;;;;;;28.15;13.60;;;9.30;95.90;;;;;;5033899;28;20029;-78
2022/03/29 06:56:01;;;;;;;31.05;13.10;;;9.30;95.40;;;;;;5017971;28;20164;-78
2022/03/29 06:58:28;;;;;;;22.33;12.48;;;9.40;94.70;;;;;;5038373;28;20026;-78
2022/03/29 07:00:54;;;;;;;25.35;13.15;;;9.40;94.70;;;;;;5033303;28;20028;-76
2022/03/29 07:03:21;;;;;;;26.92;13.48;;;9.50;94.50;;;;;;5014985;28;20029;-77
2022/03/29 07:05:48;;;;;;;26.45;11.82;;;9.50;94.20;;;;;;5019831;28;20091;-77
2022/03/29 07:08:16;;;;;;;21.33;12.10;;;9.60;94.30;;;;;;5030085;28;20458;-75
2022/03/29 07:13:27;;;;;;;25.50;13.32;;;9.70;93.70;;;;;;5017899;28;20075;-76
2022/03/29 07:15:52;;;;;;;22.33;13.55;;;9.90;93.30;;;;;;4998937;28;20034;-77
2022/03/29 07:18:19;;;;;;;31.13;14.27;;;10.00;92.80;;;;;;4996234;28;20140;-76
2022/03/29 07:20:44;;;;;;;30.58;13.88;;;10.10;92.80;;;;;;5015754;28;20033;-74
2022/03/29 07:23:11;;;;;;;29.45;13.70;;;10.20;92.40;;;;;;5016909;28;20026;-76
2022/03/29 07:25:37;;;;;;;29.30;14.77;;;10.30;91.80;;;;;;5022662;28;20026;-77
2022/03/29 07:28:03;;;;;;;24.63;11.93;;;10.40;91.70;;;;;;5022242;28;20076;-78
2022/03/29 07:30:30;;;;;;;28.48;14.98;;;10.50;91.40;;;;;;5024538;28;20129;-77
2022/03/29 07:32:57;;;;;;;24.65;13.73;;;10.70;90.50;;;;;;5021246;28;20104;-77
2022/03/29 07:35:26;;;;;;;27.45;13.57;;;10.80;89.50;;;;;;5025679;28;20029;-77
2022/03/29 07:37:52;;;;;;;33.30;13.45;;;10.90;89.30;;;;;;5032551;28;20022;-79
2022/03/29 07:40:22;;;;;;;30.98;13.98;;;10.90;88.20;;;;;;5033906;28;20106;-76
2022/03/29 07:42:49;;;;;;;23.85;13.65;;;11.00;87.60;;;;;;5027473;28;20030;-76
2022/03/29 07:45:16;;;;;;;30.15;14.13;;;11.10;86.90;;;;;;5022754;28;20505;-76
2022/03/29 07:47:42;;;;;;;30.23;14.35;;;11.20;85.50;;;;;;5026383;28;20029;-74
2022/03/29 07:50:11;;;;;;;25.15;14.00;;;11.30;83.70;;;;;;5015263;28;20045;-76
2022/03/29 07:52:39;;;;;;;26.38;13.32;;;11.40;83.40;;;;;;5019410;28;20025;-76
2022/03/29 07:55:06;;;;;;;30.42;14.20;;;11.40;82.60;;;;;;5018861;28;20197;-77
2022/03/29 07:57:33;;;;;;;25.08;13.57;;;11.50;81.60;;;;;;5021327;28;20029;-77
2022/03/29 07:59:59;;;;;;;25.92;14.02;;;11.50;81.60;;;;;;5021101;28;20460;-77
2022/03/29 08:02:25;;;;;;;24.88;13.55;;;11.60;81.20;;;;;;5023892;28;20026;-77
2022/03/29 08:04:50;;;;;;;25.50;13.85;;;11.70;81.20;;;;;;5003820;28;20037;-78
2022/03/29 08:07:16;;;;;;;40.00;14.68;;;11.80;80.20;;;;;;5023458;28;20104;-82
2022/03/29 08:09:42;;;;;;;28.92;14.45;;;11.90;79.60;;;;;;5005239;28;20029;-77
2022/03/29 08:12:08;;;;;;;24.60;14.27;;;12.00;78.80;;;;;;5021434;28;20109;-78
2022/03/29 08:14:34;;;;;;;25.48;14.13;;;12.00;78.30;;;;;;5022033;28;20037;-77
2022/03/29 08:17:00;;;;;;;30.38;14.10;;;12.10;78.40;;;;;;5026389;28;20038;-78
2022/03/29 08:19:26;;;;;;;25.33;13.50;;;12.20;78.00;;;;;;4995415;28;20038;-78
2022/03/29 08:21:52;;;;;;;27.98;14.07;;;12.30;77.40;;;;;;5011952;28;20060;-78
2022/03/29 08:24:20;;;;;;;31.33;15.02;;;12.40;78.20;;;;;;5012563;28;20042;-76
2022/03/29 08:26:48;;;;;;;26.73;13.80;;;12.60;77.20;;;;;;4994437;28;20478;-73
2022/03/29 08:29:17;;;;;;;25.05;13.63;;;12.70;76.70;;;;;;5027327;28;20025;-76
2022/03/29 08:31:44;;;;;;;33.07;15.00;;;12.80;76.00;;;;;;5013986;28;20099;-77
2022/03/29 08:34:11;;;;;;;24.08;14.52;;;12.90;75.20;;;;;;5013290;28;20493;-77
2022/03/29 08:36:38;;;;;;;19.65;12.88;;;13.00;75.10;;;;;;5012038;28;20037;-77
2022/03/29 08:39:05;;;;;;;26.35;13.68;;;13.00;75.20;;;;;;5028377;28;20084;-77
2022/03/29 08:41:45;;;;;;;31.40;14.88;;;13.10;74.30;;;;;;5032277;28;20029;-76
2022/03/29 08:44:11;;;;;;;30.98;15.75;;;13.30;73.60;;;;;;5021598;28;20037;-75
2022/03/29 08:46:41;;;;;;;30.90;15.63;;;13.50;72.60;;;;;;5032078;28;20026;-77
2022/03/29 08:49:08;;;;;;;27.60;15.00;;;13.70;71.30;;;;;;5008011;28;20059;-77
2022/03/29 08:51:36;;;;;;;26.83;13.27;;;13.70;70.80;;;;;;5034994;28;20029;-77
2022/03/29 08:54:02;;;;;;;25.45;14.75;;;13.80;70.70;;;;;;5044541;28;20116;-77
2022/03/29 08:56:27;;;;;;;27.58;14.55;;;13.90;70.10;;;;;;5032668;28;20428;-77
2022/03/29 08:58:53;;;;;;;23.88;14.32;;;14.00;69.30;;;;;;5049833;28;20045;-77
2022/03/29 09:01:20;;;;;;;33.58;15.13;;;14.20;69.00;;;;;;5040887;28;20111;-77
2022/03/29 09:03:47;;;;;;;51.63;15.30;;;14.30;67.80;;;;;;5037647;28;20025;-73
2022/03/29 09:06:13;;;;;;;44.63;15.30;;;14.30;68.90;;;;;;5033259;28;20489;-76
2022/03/29 09:08:46;;;;;;;31.33;13.90;;;14.40;68.90;;;;;;5049158;28;20025;-77
2022/03/29 09:11:14;;;;;;;27.77;13.85;;;14.60;68.30;;;;;;5041025;28;20030;-78
2022/03/29 09:13:40;;;;;;;26.52;13.95;;;14.70;67.30;;;;;;5035044;28;20030;-77
2022/03/29 09:16:08;;;;;;;24.70;13.90;;;14.80;67.20;;;;;;5041456;28;20025;-77
2022/03/29 09:18:34;;;;;;;38.60;14.90;;;15.00;66.10;;;;;;5048613;28;20035;-77
2022/03/29 09:21:17;;;;;;;29.98;14.95;;;15.20;65.40;;;;;;5037314;28;20037;-77
2022/03/29 09:24:14;;;;;;;54.95;16.05;;;15.30;64.60;;;;;;5037416;28;20076;-77
2022/03/29 09:26:52;;;;;;;64.55;16.70;;;15.40;63.30;;;;;;5048212;28;20072;-76
2022/03/29 09:29:23;;;;;;;27.38;13.80;;;15.50;63.30;;;;;;5051845;28;20093;-77
2022/03/29 09:32:06;;;;;;;40.67;14.98;;;15.70;63.90;;;;;;5050950;28;20040;-73
2022/03/29 09:34:32;;;;;;;52.72;15.88;;;15.90;63.00;;;;;;5046495;28;20041;-76
2022/03/29 09:36:59;;;;;;;30.75;14.60;;;16.10;63.00;;;;;;5037996;28;20466;-73
2022/03/29 09:39:44;;;;;;;44.88;15.18;;;16.30;61.70;;;;;;5052902;28;20021;-76
2022/03/29 09:42:13;;;;;;;36.50;15.45;;;16.40;60.90;;;;;;5045997;28;20478;-75
2022/03/29 09:44:42;;;;;;;28.00;14.57;;;16.60;59.00;;;;;;5040811;28;20037;-76
2022/03/29 09:47:10;;;;;;;24.97;14.27;;;16.70;58.50;;;;;;5052204;28;20025;-77
2022/03/29 09:50:01;;;;;;;25.88;15.20;;;16.80;57.50;;;;;;5053285;28;20049;-77
2022/03/29 09:52:31;;;;;;;22.23;13.32;;;17.00;57.00;;;;;;5054843;28;20413;-76
2022/03/29 09:55:04;;;;;;;40.00;15.52;;;17.20;55.10;;;;;;5041905;28;20034;-77
2022/03/29 09:57:38;;;;;;;31.42;15.32;;;17.20;57.10;;;;;;5035212;28;20053;-77
2022/03/29 10:00:09;;;;;;;26.35;13.63;;;17.40;55.80;;;;;;5034443;28;20037;-78
2022/03/29 10:02:36;;;;;;;23.75;13.77;;;17.50;53.90;;;;;;5039356;28;20101;-77
2022/03/29 10:05:03;;;;;;;38.00;13.30;;;17.50;54.10;;;;;;5054878;28;20029;-77
2022/03/29 10:07:34;;;;;;;82.22;16.58;;;17.50;54.30;;;;;;5055196;28;20370;-77
2022/03/29 10:10:00;;;;;;;30.15;14.30;;;18.10;56.70;;;;;;5054257;28;20044;-77
2022/03/29 10:12:26;;;;;;;23.25;14.40;;;17.60;53.60;;;;;;5045370;28;20021;-77
2022/03/29 10:14:56;;;;;;;53.03;15.40;;;17.80;53.20;;;;;;5053877;28;20087;-76
2022/03/29 10:17:23;;;;;;;49.60;15.18;;;17.80;53.80;;;;;;5055370;28;20033;-76
2022/03/29 10:19:49;;;;;;;56.17;16.77;;;17.80;53.70;;;;;;5051418;28;20048;-73
2022/03/29 10:22:15;;;;;;;32.75;14.65;;;17.90;76.60;;;;;;5035659;28;20021;-77
2022/03/29 10:24:41;;;;;;;24.95;13.25;;;;;;;;;;5035420;28;20479;-77
2022/03/29 10:27:08;;;;;;;27.63;14.65;;;18.30;51.70;;;;;;5034422;28;20018;-78
2022/03/29 10:29:35;;;;;;;23.20;13.65;;;18.30;52.40;;;;;;5042221;28;20039;-76
2022/03/29 10:32:05;;;;;;;21.42;14.68;;;18.40;52.80;;;;;;5036927;28;20044;-78
2022/03/29 10:34:37;;;;;;;25.27;15.07;;;18.50;52.10;;;;;;5034607;28;20029;-78
2022/03/29 10:37:04;;;;;;;21.45;13.38;;;18.60;51.60;;;;;;5048324;28;20387;-77
2022/03/29 10:39:45;;;;;;;24.30;14.35;;;18.60;51.20;;;;;;5044512;28;20063;-77
2022/03/29 10:42:29;;;;;;;22.08;14.05;;;18.70;51.50;;;;;;5040401;28;20028;-77
2022/03/29 10:45:03;;;;;;;25.75;14.25;;;18.90;50.60;;;;;;5041018;28;20394;-77
2022/03/29 10:47:30;;;;;;;26.00;14.73;;;19.10;49.80;;;;;;5054270;28;20056;-76
2022/03/29 10:49:56;;;;;;;20.58;14.05;;;19.20;49.20;;;;;;5051552;28;20057;-76
2022/03/29 10:52:22;;;;;;;19.55;12.85;;;19.20;49.60;;;;;;5034501;28;20033;-77
2022/03/29 10:54:49;;;;;;;20.25;14.07;;;19.20;49.90;;;;;;5037805;28;20382;-77
2022/03/29 10:57:31;;;;;;;26.40;13.75;;;19.20;50.00;;;;;;5038257;28;20025;-78
2022/03/29 11:00:12;;;;;;;22.92;14.18;;;19.30;49.90;;;;;;5045977;28;20038;-76
2022/03/29 11:02:58;;;;;;;23.65;14.07;;;19.40;49.90;;;;;;5042306;28;20053;-76
2022/03/29 11:05:24;;;;;;;30.58;15.07;;;19.40;49.30;;;;;;5046578;28;20394;-77
2022/03/29 11:07:53;;;;;;;23.60;15.02;;;19.40;49.80;;;;;;5034027;28;20034;-73
2022/03/29 11:10:21;;;;;;;31.52;15.82;;;19.30;48.60;;;;;;5048653;28;20045;-78
2022/03/29 11:12:51;;;;;;;21.27;13.85;;;19.20;49.50;;;;;;5036954;28;20025;-76
2022/03/29 11:15:38;;;;;;;23.83;15.68;;;19.20;49.80;;;;;;5036045;28;20360;-77
2022/03/29 11:18:29;;;;;;;24.50;15.88;;;19.30;49.70;;;;;;5034575;28;20374;-77
2022/03/29 11:21:02;;;;;;;33.17;15.20;;;19.40;49.80;;;;;;5037977;28;20080;-76
2022/03/29 11:23:45;;;;;;;37.38;16.20;;;19.60;49.60;;;;;;5049591;28;20033;-75
2022/03/29 11:26:12;;;;;;;30.10;16.15;;;19.80;49.00;;;;;;5033082;28;20096;-79
2022/03/29 11:28:53;;;;;;;50.97;16.98;;;20.00;48.40;;;;;;5046529;28;20028;-76
2022/03/29 11:31:20;;;;;;;59.35;17.05;;;20.00;48.20;;;;;;5053171;28;20021;-75
2022/03/29 11:33:49;;;;;;;26.73;14.60;;;20.00;48.20;;;;;;5054263;28;20028;-84
2022/03/29 11:36:15;;;;;;;33.45;16.65;;;20.10;48.20;;;;;;5046679;28;20044;-85
2022/03/29 11:38:42;;;;;;;29.48;16.38;;;20.40;47.90;;;;;;5039649;28;20029;-84
2022/03/29 11:41:25;;;;;;;23.88;16.20;;;20.50;47.20;;;;;;5050505;28;20021;-81
2022/03/29 11:43:53;;;;;;;24.13;15.07;;;20.50;47.30;;;;;;5033549;28;20037;-76
2022/03/29 11:46:18;;;;;;;25.65;15.98;;;20.50;47.40;;;;;;5053756;28;20071;-86
2022/03/29 11:48:49;;;;;;;25.15;15.77;;;20.50;47.10;;;;;;5053423;28;20425;-85
2022/03/29 11:51:16;;;;;;;40.40;16.67;;;20.60;47.40;;;;;;5053332;28;20445;-87
2022/03/29 11:53:42;;;;;;;33.60;17.38;;;20.70;47.00;;;;;;5051236;28;20051;-84
2022/03/29 11:56:19;;;;;;;31.45;17.58;;;20.90;46.10;;;;;;5056058;28;20078;-85
2022/03/29 11:58:49;;;;;;;27.20;16.30;;;21.00;46.40;;;;;;5058651;28;20521;-86
2022/03/29 12:01:27;;;;;;;25.38;16.55;;;21.00;45.70;;;;;;5042126;28;20021;-85
2022/03/29 12:03:54;;;;;;;24.73;15.18;;;20.90;46.00;;;;;;5053859;28;20041;-74
2022/03/29 12:06:19;;;;;;;34.92;17.48;;;20.70;46.30;;;;;;5053943;28;20045;-80
2022/03/29 12:09:02;;;;;;;29.48;17.42;;;20.70;46.00;;;;;;5067831;28;20033;-87
2022/03/29 12:11:39;;;;;;;26.73;16.23;;;20.70;46.10;;;;;;5045009;28;20060;-87
2022/03/29 12:14:08;;;;;;;36.45;15.70;;;20.70;46.20;;;;;;5056971;28;20481;-83
2022/03/29 12:16:38;;;;;;;26.40;16.17;;;20.90;45.90;;;;;;5054562;28;20120;-85
2022/03/29 12:19:15;;;;;;;27.77;15.63;;;21.20;45.40;;;;;;5059823;28;20025;-86
2022/03/29 12:21:45;;;;;;;25.45;16.17;;;21.30;45.50;;;;;;5053554;28;20025;-84
2022/03/29 12:24:12;;;;;;;28.70;16.48;;;21.40;45.00;;;;;;5047946;28;20088;-83
2022/03/29 12:26:52;;;;;;;26.75;15.23;;;21.40;45.00;;;;;;5045339;28;20053;-84
2022/03/29 12:29:22;;;;;;;30.05;16.83;;;21.30;45.10;;;;;;5048509;28;20112;-85
2022/03/29 12:31:49;;;;;;;40.73;16.70;;;21.30;45.50;;;;;;5047979;28;20034;-86
2022/03/29 12:34:26;;;;;;;54.17;18.00;;;21.30;45.10;;;;;;5034115;28;20033;-85
2022/03/29 12:36:58;;;;;;;34.00;17.02;;;21.40;44.70;;;;;;5048686;28;20044;-86
2022/03/29 12:39:30;;;;;;;23.83;16.08;;;21.40;44.50;;;;;;5053567;28;20036;-85
2022/03/29 12:41:56;;;;;;;33.33;16.38;;;21.40;44.60;;;;;;5054849;28;20053;-75
2022/03/29 12:44:37;;;;;;;28.75;17.20;;;21.40;44.70;;;;;;5047770;28;20106;-85
2022/03/29 12:47:04;;;;;;;28.73;17.17;;;21.50;44.00;;;;;;5033488;28;20017;-85
2022/03/29 12:49:30;;;;;;;28.75;17.35;;;21.30;44.00;;;;;;5036473;28;20049;-85
2022/03/29 12:52:02;;;;;;;26.17;16.23;;;21.20;44.50;;;;;;5039270;28;20086;-76
2022/03/29 12:54:49;;;;;;;26.45;15.98;;;21.00;44.30;;;;;;5051747;28;20091;-84
2022/03/29 12:57:34;;;;;;;30.48;17.02;;;20.70;45.30;;;;;;5072841;28;20013;-76